Time;durP1;ratioP1;P1;durP2;ratioP2;P2;SDS_P1;SDS_P2;PMS_P1;PMS_P2;Temp;Humidity;BMP_temperature;BMP_pressure;BME280_temperature;BME280_humidity;BME280_pressure;Samples;Min_cycle;Max_cycle;Signal;HPM_P1;HPM_P2
2021/04/03 00:00:41;;;;;;;11.23;5.57;;;6.80;99.90;;;;;;5073765;28;20397;-73
2021/04/03 00:03:10;;;;;;;14.60;5.70;;;6.80;99.90;;;;;;5100239;28;20452;-72
2021/04/03 00:05:37;;;;;;;18.00;5.50;;;6.70;99.90;;;;;;5073029;28;20196;-72
2021/04/03 00:08:04;;;;;;;17.53;5.93;;;6.70;99.90;;;;;;5092050;28;20457;-72
2021/04/03 00:10:33;;;;;;;12.90;6.23;;;6.70;99.90;;;;;;5089384;28;20418;-73
2021/04/03 00:13:00;;;;;;;12.43;5.43;;;6.70;99.90;;;;;;5072441;28;20447;-73
2021/04/03 00:15:27;;;;;;;12.50;6.10;;;6.80;99.90;;;;;;5083762;28;20427;-72
2021/04/03 00:17:54;;;;;;;13.48;5.50;;;6.80;99.90;;;;;;5089146;28;20187;-72
2021/04/03 00:20:23;;;;;;;15.10;6.23;;;6.70;99.90;;;;;;5080376;28;20240;-73
2021/04/03 00:22:49;;;;;;;16.47;6.93;;;6.70;99.90;;;;;;5091435;28;20837;-72
2021/04/03 00:25:15;;;;;;;12.35;5.57;;;6.70;99.90;;;;;;5067056;28;21138;-72
2021/04/03 00:27:43;;;;;;;24.57;6.67;;;6.60;99.90;;;;;;5097979;28;20263;-72
2021/04/03 00:30:20;;;;;;;15.65;5.97;;;6.60;99.90;;;;;;5093010;28;20421;-72
2021/04/03 00:32:54;;;;;;;18.00;6.73;;;6.60;99.90;;;;;;5091838;28;20299;-72
2021/04/03 00:35:26;;;;;;;13.63;5.88;;;6.60;99.90;;;;;;5085944;28;20780;-72
2021/04/03 00:37:53;;;;;;;14.25;5.43;;;6.50;99.90;;;;;;5080451;28;20629;-72
2021/04/03 00:40:38;;;;;;;16.42;5.82;;;6.60;99.90;;;;;;5082020;28;20226;-73
2021/04/03 00:43:19;;;;;;;18.38;5.60;;;6.50;99.90;;;;;;5051137;22;20245;-73
2021/04/03 00:45:46;;;;;;;18.37;5.33;;;6.60;99.90;;;;;;5024406;28;20178;-73
2021/04/03 00:48:13;;;;;;;20.63;6.82;;;6.60;99.90;;;;;;5012273;28;20460;-71
2021/04/03 00:50:43;;;;;;;17.80;5.90;;;6.60;99.90;;;;;;5008465;28;20261;-70
2021/04/03 00:53:12;;;;;;;18.37;5.97;;;6.60;99.90;;;;;;5032522;28;20237;-70
2021/04/03 00:55:42;;;;;;;14.07;5.40;;;6.60;99.90;;;;;;5017321;28;20428;-71
2021/04/03 00:58:10;;;;;;;17.03;6.10;;;6.70;99.90;;;;;;5014699;28;20450;-71
2021/04/03 01:00:38;;;;;;;12.10;5.03;;;6.70;99.90;;;;;;5032189;28;20407;-71
2021/04/03 01:03:05;;;;;;;13.68;6.28;;;6.80;99.90;;;;;;5039337;28;20950;-71
2021/04/03 01:05:31;;;;;;;15.02;5.20;;;6.80;99.90;;;;;;5032379;28;20775;-71
2021/04/03 01:08:00;;;;;;;11.60;5.80;;;6.80;99.90;;;;;;5034063;28;20598;-71
2021/04/03 01:10:35;;;;;;;14.63;5.43;;;6.70;99.90;;;;;;5014921;28;20768;-70
2021/04/03 01:13:34;;;;;;;19.55;5.20;;;6.80;99.90;;;;;;5030921;28;20200;-70
2021/04/03 01:16:08;;;;;;;15.02;4.75;;;6.90;99.90;;;;;;5010537;28;20198;-70
2021/04/03 01:19:07;;;;;;;10.82;5.68;;;6.80;99.90;;;;;;5031005;28;20175;-71
2021/04/03 01:22:11;;;;;;;14.57;5.80;;;6.70;99.90;;;;;;5013917;28;20235;-70
2021/04/03 01:25:17;;;;;;;22.08;5.65;;;6.70;99.90;;;;;;5030722;28;20205;-71
2021/04/03 01:28:22;;;;;;;7.43;4.67;;;6.70;99.90;;;;;;5015464;28;20544;-71
2021/04/03 01:30:50;;;;;;;18.55;5.80;;;6.80;99.90;;;;;;5036916;28;20426;-70
2021/04/03 01:33:21;;;;;;;10.75;5.00;;;6.80;99.90;;;;;;5033184;28;20693;-71
2021/04/03 01:36:02;;;;;;;16.20;4.50;;;6.80;99.90;;;;;;5042889;28;20188;-71
2021/04/03 01:38:43;;;;;;;6.47;3.63;;;6.80;99.90;;;;;;5032348;28;20449;-71
2021/04/03 01:41:15;;;;;;;11.77;4.40;;;6.70;99.90;;;;;;5047646;28;20506;-71
2021/04/03 01:43:49;;;;;;;13.90;4.73;;;6.70;99.90;;;;;;5014183;28;20633;-71
2021/04/03 01:46:23;;;;;;;10.35;4.30;;;6.60;99.90;;;;;;5060927;28;20544;-71
2021/04/03 01:48:51;;;;;;;12.10;4.72;;;6.60;99.90;;;;;;5055181;28;20206;-70
2021/04/03 01:51:20;;;;;;;11.70;4.80;;;6.50;99.90;;;;;;5056140;28;20189;-71
2021/04/03 01:53:50;;;;;;;7.07;4.60;;;6.60;99.90;;;;;;5052416;28;20438;-71
2021/04/03 01:56:20;;;;;;;18.90;4.27;;;6.50;99.90;;;;;;5051107;28;20181;-71
2021/04/03 01:58:49;;;;;;;20.20;6.00;;;6.50;99.90;;;;;;5032627;28;20513;-71
2021/04/03 02:01:16;;;;;;;12.57;4.70;;;6.50;99.90;;;;;;5051423;28;20437;-71
2021/04/03 02:03:45;;;;;;;15.17;4.73;;;6.60;99.90;;;;;;5032316;28;20446;-71
2021/04/03 02:06:15;;;;;;;18.35;6.07;;;6.60;99.90;;;;;;5061390;28;20417;-71
2021/04/03 02:09:01;;;;;;;12.70;4.23;;;6.60;99.90;;;;;;5051529;28;20211;-71
2021/04/03 02:11:51;;;;;;;13.40;4.83;;;6.60;99.90;;;;;;5036700;28;20420;-70
2021/04/03 02:14:38;;;;;;;13.87;4.60;;;6.60;99.90;;;;;;5028952;28;21079;-71
2021/04/03 02:17:08;;;;;;;16.42;5.80;;;6.60;99.90;;;;;;5046016;28;20527;-71
2021/04/03 02:19:39;;;;;;;16.75;5.88;;;6.60;99.90;;;;;;5053057;28;20567;-71
2021/04/03 02:22:15;;;;;;;12.07;4.57;;;6.60;99.90;;;;;;5014363;28;20185;-70
2021/04/03 02:24:46;;;;;;;16.20;5.15;;;6.70;99.90;;;;;;5026587;28;20625;-70
2021/04/03 02:27:17;;;;;;;6.87;4.20;;;6.60;99.90;;;;;;5022429;28;20196;-71
2021/04/03 02:29:45;;;;;;;12.23;4.00;;;6.60;99.90;;;;;;5049812;28;20945;-69
2021/04/03 02:32:13;;;;;;;10.80;4.40;;;6.70;99.90;;;;;;5018837;28;20173;-71
2021/04/03 02:34:40;;;;;;;8.57;4.32;;;6.80;99.90;;;;;;5034681;28;20539;-70
2021/04/03 02:37:07;;;;;;;10.07;4.22;;;6.70;99.90;;;;;;5046189;28;20183;-70
2021/04/03 02:39:34;;;;;;;11.25;4.30;;;6.70;99.90;;;;;;5031915;28;20694;-70
2021/04/03 02:42:23;;;;;;;10.32;4.97;;;6.70;99.90;;;;;;5028882;28;20230;-71
2021/04/03 02:45:08;;;;;;;15.27;3.80;;;6.70;99.90;;;;;;5039308;28;20190;-71
2021/04/03 02:47:44;;;;;;;12.10;4.57;;;6.70;99.90;;;;;;5035662;28;20229;-70
2021/04/03 02:50:19;;;;;;;13.98;4.50;;;6.60;99.90;;;;;;5043078;28;20906;-70
2021/04/03 02:52:50;;;;;;;9.02;3.92;;;6.60;99.90;;;;;;5026397;28;20220;-70
2021/04/03 02:55:28;;;;;;;18.15;6.30;;;6.60;99.90;;;;;;5028623;28;20174;-71
2021/04/03 02:57:58;;;;;;;12.60;4.82;;;6.60;99.90;;;;;;5025857;28;20185;-71
2021/04/03 03:00:25;;;;;;;13.82;4.55;;;6.60;99.90;;;;;;5028759;28;20171;-71
2021/04/03 03:02:52;;;;;;;14.87;6.00;;;6.70;99.90;;;;;;5026497;28;20561;-71
2021/04/03 03:05:20;;;;;;;17.13;5.73;;;6.70;99.90;;;;;;5047379;28;20419;-71
2021/04/03 03:07:50;;;;;;;12.63;4.80;;;6.70;99.90;;;;;;5061477;28;20447;-71
2021/04/03 03:10:21;;;;;;;15.20;5.20;;;6.80;99.90;;;;;;5049361;28;20200;-70
2021/04/03 03:12:51;;;;;;;15.87;5.30;;;6.80;99.90;;;;;;5027893;28;20205;-71
2021/04/03 03:15:21;;;;;;;19.77;4.37;;;6.80;99.90;;;;;;5042981;28;20421;-71
2021/04/03 03:17:52;;;;;;;13.88;4.80;;;6.80;99.90;;;;;;5021783;28;20443;-71
2021/04/03 03:20:20;;;;;;;15.07;4.40;;;6.70;99.90;;;;;;5030505;28;20301;-70
2021/04/03 03:22:48;;;;;;;21.02;5.05;;;6.60;99.90;;;;;;5028163;28;20208;-71
2021/04/03 03:25:14;;;;;;;17.63;5.43;;;6.60;99.90;;;;;;5030093;28;20166;-71
2021/04/03 03:27:46;;;;;;;13.85;4.40;;;6.60;99.90;;;;;;5015684;28;20211;-71
2021/04/03 03:30:18;;;;;;;10.55;3.60;;;6.50;99.90;;;;;;5044973;28;20180;-70
2021/04/03 03:32:47;;;;;;;10.05;3.90;;;6.50;99.90;;;;;;5018242;28;20201;-71
2021/04/03 03:35:15;;;;;;;17.50;3.97;;;6.50;99.90;;;;;;5046360;28;20186;-70
2021/04/03 03:37:44;;;;;;;11.10;5.20;;;6.60;99.90;;;;;;5020743;28;20694;-70
2021/04/03 03:40:16;;;;;;;16.60;4.80;;;6.60;99.90;;;;;;5018203;28;20264;-71
2021/04/03 03:42:44;;;;;;;8.30;3.73;;;6.60;99.90;;;;;;5019327;28;20476;-71
2021/04/03 03:45:17;;;;;;;9.20;3.90;;;6.60;99.90;;;;;;5001784;28;20502;-71
2021/04/03 03:47:46;;;;;;;14.90;4.90;;;6.70;99.90;;;;;;5031517;28;20452;-70
2021/04/03 03:50:15;;;;;;;9.10;3.55;;;6.70;99.90;;;;;;5036454;28;20208;-71
2021/04/03 03:52:44;;;;;;;16.02;3.45;;;6.70;99.90;;;;;;4993109;28;20224;-71
2021/04/03 03:55:11;;;;;;;11.75;5.07;;;6.60;99.90;;;;;;5030502;28;20539;-71
2021/04/03 03:57:38;;;;;;;13.37;4.60;;;6.60;99.90;;;;;;4997751;28;20181;-73
2021/04/03 04:00:07;;;;;;;13.87;4.60;;;6.60;99.90;;;;;;5003776;28;20497;-72
2021/04/03 04:02:41;;;;;;;9.33;4.40;;;6.60;99.90;;;;;;5017169;28;20478;-73
2021/04/03 04:05:10;;;;;;;20.42;5.03;;;6.60;99.90;;;;;;5021564;28;20462;-72
2021/04/03 04:07:40;;;;;;;14.57;4.00;;;6.60;99.90;;;;;;5003039;28;20679;-73
2021/04/03 04:10:08;;;;;;;11.57;4.15;;;6.50;99.90;;;;;;5011219;28;20867;-73
2021/04/03 04:12:39;;;;;;;11.90;4.20;;;6.50;99.90;;;;;;4997876;28;20753;-73
2021/04/03 04:15:08;;;;;;;13.90;3.90;;;6.30;99.90;;;;;;5004251;28;20424;-73
2021/04/03 04:17:35;;;;;;;11.48;4.80;;;6.20;99.90;;;;;;5022327;28;20474;-73
2021/04/03 04:20:03;;;;;;;13.70;4.00;;;6.20;99.90;;;;;;4997645;28;20666;-71
2021/04/03 04:22:33;;;;;;;17.33;4.40;;;6.30;99.90;;;;;;5002151;28;20961;-71
2021/04/03 04:25:00;;;;;;;11.30;4.70;;;6.30;99.90;;;;;;5014779;28;20908;-71
2021/04/03 04:27:29;;;;;;;17.02;4.85;;;6.30;99.90;;;;;;5018213;28;20449;-70
2021/04/03 04:29:57;;;;;;;11.33;4.40;;;6.30;99.90;;;;;;5014433;28;20252;-71
2021/04/03 04:32:24;;;;;;;10.73;4.18;;;6.30;99.90;;;;;;5030497;28;20573;-71
2021/04/03 04:34:50;;;;;;;10.65;4.95;;;6.30;99.90;;;;;;5014580;28;20708;-71
2021/04/03 04:37:17;;;;;;;16.88;4.70;;;6.30;99.90;;;;;;5030210;28;20640;-71
2021/04/03 04:39:47;;;;;;;20.27;5.07;;;6.30;99.90;;;;;;5014410;28;20170;-71
2021/04/03 04:42:23;;;;;;;12.00;4.85;;;6.30;99.90;;;;;;5032665;28;20232;-71
2021/04/03 04:44:56;;;;;;;10.57;4.22;;;6.30;99.90;;;;;;5019063;28;20172;-70
2021/04/03 04:47:23;;;;;;;15.55;4.85;;;6.30;99.90;;;;;;5020924;28;20209;-71
2021/04/03 04:49:52;;;;;;;15.18;5.30;;;6.40;99.90;;;;;;5010719;28;20186;-71
2021/04/03 04:52:18;;;;;;;11.10;4.50;;;6.40;99.90;;;;;;5003402;28;20181;-70
2021/04/03 04:54:50;;;;;;;10.80;4.63;;;6.40;99.90;;;;;;5024149;28;20425;-71
2021/04/03 04:57:17;;;;;;;11.00;4.90;;;6.50;99.90;;;;;;5013808;28;20638;-71
2021/04/03 04:59:52;;;;;;;17.70;4.80;;;6.50;99.90;;;;;;5031881;28;20478;-74
2021/04/03 05:02:23;;;;;;;12.93;4.50;;;6.50;99.90;;;;;;4996691;28;20538;-73
2021/04/03 05:04:50;;;;;;;23.47;4.90;;;6.60;99.90;;;;;;4997289;28;20430;-74
2021/04/03 05:07:16;;;;;;;13.53;4.40;;;6.60;99.90;;;;;;5018277;28;20468;-73
2021/04/03 05:09:43;;;;;;;13.10;4.55;;;6.70;99.90;;;;;;5031089;28;20432;-73
2021/04/03 05:12:10;;;;;;;16.95;5.45;;;6.80;99.90;;;;;;5013583;28;20542;-74
2021/04/03 05:14:36;;;;;;;17.53;5.27;;;6.80;99.90;;;;;;5007485;28;20185;-74
2021/04/03 05:17:03;;;;;;;12.20;4.80;;;6.80;99.90;;;;;;5044293;28;20443;-73
2021/04/03 05:19:29;;;;;;;18.23;5.37;;;6.90;99.90;;;;;;4997057;28;20502;-73
2021/04/03 05:21:55;;;;;;;20.27;5.43;;;6.80;99.90;;;;;;5017503;28;20435;-74
2021/04/03 05:24:22;;;;;;;16.10;5.82;;;6.80;99.90;;;;;;5030855;28;20443;-73
2021/04/03 05:26:48;;;;;;;13.80;5.80;;;6.70;99.90;;;;;;5033030;28;20245;-74
2021/04/03 05:29:14;;;;;;;10.55;5.07;;;6.80;99.90;;;;;;4978050;28;20613;-71
2021/04/03 05:31:40;;;;;;;16.52;5.38;;;6.70;99.90;;;;;;5010307;28;20240;-71
2021/04/03 05:34:07;;;;;;;11.55;4.97;;;6.70;99.90;;;;;;5019914;28;20202;-71
2021/04/03 05:36:33;;;;;;;12.55;4.38;;;6.70;99.90;;;;;;5016590;28;20632;-71
2021/04/03 05:38:59;;;;;;;15.43;4.85;;;6.70;99.90;;;;;;5050342;28;20178;-74
2021/04/03 05:41:25;;;;;;;12.23;4.25;;;6.60;99.90;;;;;;5036611;28;20230;-73
2021/04/03 05:43:54;;;;;;;19.45;5.85;;;6.60;99.90;;;;;;5032209;28;20560;-74
2021/04/03 05:46:22;;;;;;;18.70;6.30;;;6.60;99.90;;;;;;4999684;28;20246;-71
2021/04/03 05:48:49;;;;;;;16.13;5.10;;;6.60;99.90;;;;;;5030422;28;20425;-71
2021/04/03 05:51:18;;;;;;;17.30;6.60;;;6.60;99.90;;;;;;5013092;28;20854;-71
2021/04/03 05:53:44;;;;;;;11.47;4.30;;;6.60;99.90;;;;;;5030521;28;20234;-71
2021/04/03 05:56:11;;;;;;;13.48;5.40;;;6.70;99.90;;;;;;5014972;28;20508;-71
2021/04/03 05:58:37;;;;;;;19.17;6.22;;;6.60;99.90;;;;;;5029625;28;20251;-71
2021/04/03 06:01:07;;;;;;;11.88;5.53;;;6.50;99.90;;;;;;4998097;28;20217;-71
2021/04/03 06:03:34;;;;;;;17.55;4.75;;;6.40;99.90;;;;;;5030901;28;20202;-71
2021/04/03 06:06:01;;;;;;;9.45;5.43;;;6.50;99.90;;;;;;5028676;28;20685;-71
2021/04/03 06:11:22;;;;;;;13.77;6.10;;;6.40;99.90;;;;;;5030246;28;20503;-71
2021/04/03 06:14:01;;;;;;;16.50;5.53;;;6.50;99.90;;;;;;4995899;28;20206;-71
2021/04/03 06:16:28;;;;;;;14.47;5.87;;;6.50;99.90;;;;;;5012931;28;20935;-70
2021/04/03 06:19:13;;;;;;;15.38;4.80;;;6.50;99.90;;;;;;5030513;28;20430;-70
2021/04/03 06:21:43;;;;;;;14.35;5.65;;;6.50;99.90;;;;;;5029751;28;20193;-71
2021/04/03 06:24:26;;;;;;;10.70;4.80;;;6.60;99.90;;;;;;5012912;28;20278;-72
2021/04/03 06:27:02;;;;;;;21.10;6.03;;;6.60;99.90;;;;;;5011975;28;20192;-70
2021/04/03 06:29:35;;;;;;;23.92;6.38;;;6.60;99.90;;;;;;5012682;28;20174;-71
2021/04/03 06:32:03;;;;;;;15.53;5.63;;;6.70;99.90;;;;;;5012986;28;20193;-72
2021/04/03 06:34:45;;;;;;;24.23;6.82;;;6.70;99.90;;;;;;5012492;28;20477;-71
2021/04/03 06:37:11;;;;;;;22.13;5.07;;;6.70;99.90;;;;;;5021649;28;21567;-70
2021/04/03 06:39:54;;;;;;;20.40;6.07;;;6.80;99.90;;;;;;5030247;28;20173;-74
2021/04/03 06:42:46;;;;;;;19.98;5.28;;;6.80;99.90;;;;;;5022827;28;20512;-74
2021/04/03 06:45:22;;;;;;;19.90;4.82;;;6.90;99.90;;;;;;5012341;28;20544;-73
2021/04/03 06:47:50;;;;;;;18.17;5.40;;;6.90;99.90;;;;;;5032930;28;20284;-74
2021/04/03 06:50:19;;;;;;;16.67;5.60;;;7.10;99.90;;;;;;5010554;28;20186;-74
2021/04/03 06:52:46;;;;;;;21.60;5.73;;;7.10;99.90;;;;;;5030022;28;20454;-73
2021/04/03 06:55:16;;;;;;;21.50;5.88;;;7.20;99.90;;;;;;5012020;28;20420;-72
2021/04/03 06:57:47;;;;;;;17.30;5.40;;;7.20;99.90;;;;;;5019432;28;20193;-74
2021/04/03 07:00:16;;;;;;;14.60;5.47;;;7.30;99.90;;;;;;4977736;28;20461;-69
2021/04/03 07:03:06;;;;;;;15.93;5.50;;;7.30;99.90;;;;;;5005221;28;20451;-70
2021/04/03 07:05:35;;;;;;;20.90;5.67;;;7.40;99.90;;;;;;5016912;28;20841;-71
2021/04/03 07:08:07;;;;;;;13.23;4.80;;;7.50;99.90;;;;;;5034477;28;20481;-76
2021/04/03 07:10:38;;;;;;;18.37;4.77;;;7.50;99.90;;;;;;5014389;28;20773;-72
2021/04/03 07:13:06;;;;;;;20.43;5.30;;;7.50;99.90;;;;;;4995861;28;21014;-75
2021/04/03 07:15:33;;;;;;;16.07;5.43;;;7.50;99.90;;;;;;5020241;28;20500;-75
2021/04/03 07:17:59;;;;;;;20.87;6.50;;;7.60;99.90;;;;;;5034138;28;20457;-73
2021/04/03 07:20:29;;;;;;;19.67;5.70;;;7.70;99.90;;;;;;5012066;28;21025;-73
2021/04/03 07:23:19;;;;;;;16.73;5.03;;;7.60;99.90;;;;;;4995577;28;20476;-74
2021/04/03 07:25:50;;;;;;;15.90;4.70;;;7.60;99.90;;;;;;5030200;28;20429;-73
2021/04/03 07:28:20;;;;;;;12.90;5.03;;;7.60;99.90;;;;;;5030446;28;20545;-73
2021/04/03 07:30:48;;;;;;;16.87;4.87;;;7.70;99.90;;;;;;5009056;28;20449;-73
2021/04/03 07:33:23;;;;;;;20.33;5.20;;;7.70;99.90;;;;;;5032406;28;20818;-73
2021/04/03 07:35:57;;;;;;;15.20;5.97;;;7.80;99.90;;;;;;5018836;28;20910;-73
2021/04/03 07:38:37;;;;;;;13.03;5.30;;;8.00;99.90;;;;;;5007747;28;20791;-73
2021/04/03 07:41:23;;;;;;;8.27;5.20;;;8.00;99.90;;;;;;5002625;28;20789;-72
2021/04/03 07:43:52;;;;;;;11.13;5.93;;;7.90;99.90;;;;;;5013404;28;20802;-74
2021/04/03 07:46:23;;;;;;;14.30;4.53;;;8.00;99.90;;;;;;4995426;28;20512;-74
2021/04/03 07:48:55;;;;;;;19.47;6.53;;;8.10;99.90;;;;;;5008973;28;20439;-74
2021/04/03 07:51:25;;;;;;;18.07;5.57;;;8.20;99.90;;;;;;5030241;28;20421;-73
2021/04/03 07:53:54;;;;;;;9.83;5.73;;;8.20;99.90;;;;;;5015415;28;20796;-74
2021/04/03 07:56:23;;;;;;;16.50;5.20;;;8.20;99.90;;;;;;5021580;28;20436;-73
2021/04/03 07:58:55;;;;;;;17.87;5.43;;;8.30;99.90;;;;;;5014970;28;20507;-73
2021/04/03 08:01:26;;;;;;;12.30;5.70;;;8.20;99.60;;;;;;5032008;28;21204;-73
2021/04/03 08:03:54;;;;;;;15.20;5.40;;;8.10;99.90;;;;;;5014198;28;20531;-73
2021/04/03 08:06:32;;;;;;;14.43;5.90;;;8.20;99.90;;;;;;5032304;28;20417;-74
2021/04/03 08:09:00;;;;;;;13.07;5.53;;;8.30;99.70;;;;;;5025953;28;20517;-73
2021/04/03 08:11:27;;;;;;;9.60;5.57;;;8.40;99.40;;;;;;5033317;28;20427;-73
2021/04/03 08:13:57;;;;;;;18.20;6.60;;;8.50;98.70;;;;;;5025947;28;20777;-74
2021/04/03 08:16:26;;;;;;;8.77;5.60;;;8.60;99.30;;;;;;5033227;28;20951;-74
2021/04/03 08:18:58;;;;;;;15.30;6.47;;;8.70;99.30;;;;;;5040444;28;21142;-74
2021/04/03 08:21:26;;;;;;;16.23;5.77;;;8.80;98.80;;;;;;5032155;28;20462;-74
2021/04/03 08:23:55;;;;;;;15.50;7.47;;;8.90;98.40;;;;;;5031002;28;20438;-75
2021/04/03 08:26:33;;;;;;;11.17;5.77;;;9.00;98.30;;;;;;5032291;28;20414;-75
2021/04/03 08:28:59;;;;;;;17.17;6.10;;;9.10;97.80;;;;;;5025262;28;20427;-75
2021/04/03 08:31:28;;;;;;;12.40;5.93;;;9.20;97.40;;;;;;5031700;28;20549;-74
2021/04/03 08:33:57;;;;;;;16.00;5.30;;;9.10;97.00;;;;;;5014712;28;20448;-74
2021/04/03 08:36:25;;;;;;;17.30;6.57;;;9.10;97.00;;;;;;5033091;28;20404;-74
2021/04/03 08:38:53;;;;;;;17.87;6.37;;;9.20;97.30;;;;;;5020460;28;20431;-74
2021/04/03 08:41:23;;;;;;;15.37;5.83;;;9.30;97.20;;;;;;4998191;28;20490;-75
2021/04/03 08:43:50;;;;;;;15.17;5.87;;;9.20;97.20;;;;;;5050452;22;20613;-72
2021/04/03 08:46:17;;;;;;;13.87;6.23;;;9.40;97.80;;;;;;5037391;28;20417;-72
2021/04/03 08:48:49;;;;;;;22.97;7.00;;;9.60;97.20;;;;;;5038908;28;20450;-72
2021/04/03 08:51:16;;;;;;;16.73;6.27;;;9.50;96.80;;;;;;5010055;28;20481;-72
2021/04/03 08:53:48;;;;;;;16.53;5.47;;;9.50;96.40;;;;;;5029401;28;20449;-72
2021/04/03 08:56:28;;;;;;;13.97;6.47;;;9.60;96.70;;;;;;5065470;28;20424;-71
2021/04/03 08:58:56;;;;;;;16.57;6.20;;;9.70;96.80;;;;;;5069609;28;20806;-72
2021/04/03 09:01:31;;;;;;;17.00;6.77;;;9.80;96.40;;;;;;5037959;28;20421;-70
2021/04/03 09:04:05;;;;;;;15.40;7.97;;;10.00;96.20;;;;;;5053943;28;20501;-74
2021/04/03 09:06:49;;;;;;;12.63;6.37;;;10.20;95.40;;;;;;5061906;28;20530;-75
2021/04/03 09:09:17;;;;;;;19.83;8.97;;;10.30;95.00;;;;;;5073230;28;20751;-74
2021/04/03 09:11:56;;;;;;;17.67;8.00;;;10.40;95.00;;;;;;5053655;28;20420;-74
2021/04/03 09:14:27;;;;;;;16.30;7.77;;;10.50;95.00;;;;;;5053765;28;20531;-74
2021/04/03 09:16:54;;;;;;;18.23;8.80;;;10.40;94.50;;;;;;5069061;28;20452;-73
2021/04/03 09:19:28;;;;;;;17.97;7.57;;;10.30;94.70;;;;;;5030942;28;20469;-74
2021/04/03 09:21:55;;;;;;;17.03;7.00;;;10.30;95.50;;;;;;5067816;28;20509;-73
2021/04/03 09:24:41;;;;;;;18.90;6.73;;;10.30;95.00;;;;;;5059526;28;20484;-73
2021/04/03 09:27:12;;;;;;;26.07;7.07;;;10.30;94.80;;;;;;5059785;28;20486;-74
2021/04/03 09:29:40;;;;;;;14.83;7.70;;;10.60;95.60;;;;;;5090418;28;20441;-74
2021/04/03 09:32:08;;;;;;;19.83;7.87;;;11.00;95.20;;;;;;5052179;28;20410;-74
2021/04/03 09:34:36;;;;;;;15.80;7.13;;;11.20;94.60;;;;;;5068216;28;20795;-73
2021/04/03 09:37:17;;;;;;;19.10;7.47;;;11.30;93.90;;;;;;5066472;28;20441;-74
2021/04/03 09:39:46;;;;;;;17.70;7.60;;;11.50;93.40;;;;;;5061809;28;20524;-74
2021/04/03 09:42:20;;;;;;;12.10;6.80;;;11.70;93.90;;;;;;5071012;28;21017;-74
2021/04/03 09:44:49;;;;;;;14.90;7.40;;;11.70;92.70;;;;;;5062988;28;20442;-73
2021/04/03 09:47:16;;;;;;;13.47;7.60;;;11.80;94.30;;;;;;5053455;28;20461;-75
2021/04/03 09:49:54;;;;;;;13.57;7.80;;;12.20;93.10;;;;;;5070647;28;20416;-74
2021/04/03 09:52:21;;;;;;;15.90;6.90;;;12.30;92.90;;;;;;5088136;28;20831;-74
2021/04/03 09:54:48;;;;;;;14.97;6.83;;;12.20;92.10;;;;;;5088934;28;20422;-73
2021/04/03 09:57:16;;;;;;;15.73;6.80;;;12.00;92.20;;;;;;5048941;28;20831;-73
2021/04/03 09:59:43;;;;;;;14.27;7.73;;;12.20;93.10;;;;;;5055922;28;20453;-73
2021/04/03 10:02:11;;;;;;;12.67;6.50;;;12.30;91.50;;;;;;5052903;28;20766;-73
2021/04/03 10:04:37;;;;;;;19.83;7.00;;;12.00;92.00;;;;;;5087255;28;21064;-72
2021/04/03 10:07:04;;;;;;;14.57;6.80;;;11.90;92.80;;;;;;5059867;28;20954;-74
2021/04/03 10:09:30;;;;;;;18.90;7.00;;;11.90;92.50;;;;;;5070698;28;20968;-73
2021/04/03 10:11:57;;;;;;;12.37;7.37;;;11.90;93.10;;;;;;5069913;28;20420;-74
2021/04/03 10:14:24;;;;;;;22.83;8.40;;;12.30;92.80;;;;;;5061996;28;20444;-74
2021/04/03 10:16:54;;;;;;;13.40;7.77;;;12.20;92.50;;;;;;5057871;28;20430;-79
2021/04/03 10:19:20;;;;;;;20.67;6.90;;;11.90;92.70;;;;;;5069137;28;20982;-75
2021/04/03 10:21:47;;;;;;;19.20;6.97;;;12.00;92.90;;;;;;5054578;28;20413;-75
2021/04/03 10:24:13;;;;;;;16.10;7.00;;;12.00;92.80;;;;;;5037892;28;20548;-76
2021/04/03 10:26:43;;;;;;;29.33;8.43;;;11.80;93.20;;;;;;5067707;28;21491;-75
2021/04/03 10:29:09;;;;;;;14.83;7.67;;;12.00;93.30;;;;;;5062522;28;20913;-75
2021/04/03 10:31:35;;;;;;;21.53;7.13;;;11.80;92.90;;;;;;5059872;28;20426;-76
2021/04/03 10:34:02;;;;;;;17.70;9.23;;;11.60;93.50;;;;;;5067674;28;20450;-76
2021/04/03 10:36:28;;;;;;;13.70;7.27;;;11.50;94.30;;;;;;5062608;28;20441;-76
2021/04/03 10:38:55;;;;;;;18.10;7.40;;;11.50;93.90;;;;;;5066542;28;20422;-77
2021/04/03 10:41:21;;;;;;;16.50;8.27;;;11.40;93.80;;;;;;5084674;28;20815;-79
2021/04/03 10:43:48;;;;;;;12.20;7.27;;;11.40;94.20;;;;;;5055605;28;20473;-76
2021/04/03 10:46:15;;;;;;;15.80;7.00;;;11.70;94.10;;;;;;5071035;28;20436;-77
2021/04/03 10:48:42;;;;;;;17.73;7.57;;;12.00;93.50;;;;;;5076139;28;20448;-76
2021/04/03 10:51:11;;;;;;;17.43;8.13;;;12.20;92.40;;;;;;5071491;28;20499;-76
2021/04/03 10:53:40;;;;;;;18.93;8.67;;;12.50;93.40;;;;;;5065195;28;20991;-76
2021/04/03 10:56:07;;;;;;;19.83;8.77;;;12.40;92.40;;;;;;5068187;28;20426;-77
2021/04/03 10:58:33;;;;;;;18.27;7.57;;;12.40;92.10;;;;;;5051963;28;20438;-78
2021/04/03 11:01:03;;;;;;;20.47;9.70;;;12.40;92.40;;;;;;5041479;28;20782;-76
2021/04/03 11:03:31;;;;;;;14.30;7.83;;;12.40;92.20;;;;;;5066259;28;20456;-76
2021/04/03 11:06:00;;;;;;;15.43;6.77;;;12.50;92.50;;;;;;5073015;28;20907;-77
2021/04/03 11:08:30;;;;;;;15.57;6.73;;;12.60;92.10;;;;;;5043134;28;20467;-74
2021/04/03 11:10:57;;;;;;;14.87;6.80;;;12.90;91.70;;;;;;5091502;28;20423;-75
2021/04/03 11:13:24;;;;;;;9.80;6.03;;;13.00;91.60;;;;;;5078161;28;20810;-76
2021/04/03 11:15:56;;;;;;;12.27;6.60;;;12.90;91.00;;;;;;5076488;28;20450;-76
2021/04/03 11:18:22;;;;;;;11.30;6.63;;;13.10;91.80;;;;;;5094891;28;20457;-74
2021/04/03 11:20:54;;;;;;;12.30;7.27;;;13.30;90.60;;;;;;5087442;28;20436;-77
2021/04/03 11:23:23;;;;;;;11.20;6.63;;;13.20;90.60;;;;;;5078130;28;20547;-78
2021/04/03 11:25:50;;;;;;;19.60;8.97;;;13.40;90.70;;;;;;5028040;28;20432;-77
2021/04/03 11:28:16;;;;;;;17.10;6.90;;;13.30;90.90;;;;;;5068469;28;20471;-75
2021/04/03 11:30:42;;;;;;;14.40;8.03;;;13.50;89.40;;;;;;5091175;28;21903;-75
2021/04/03 11:33:08;;;;;;;17.03;7.13;;;13.60;90.10;;;;;;5066935;28;20467;-77
2021/04/03 11:35:35;;;;;;;17.67;8.80;;;13.70;88.70;;;;;;5074648;28;20420;-76
2021/04/03 11:38:03;;;;;;;11.90;7.30;;;13.60;88.20;;;;;;5054988;28;20427;-76
2021/04/03 11:40:30;;;;;;;16.03;8.00;;;13.90;88.30;;;;;;5044889;28;20439;-75
2021/04/03 11:43:00;;;;;;;13.00;7.00;;;14.10;85.50;;;;;;5064817;28;20964;-75
2021/04/03 11:45:26;;;;;;;11.00;6.93;;;14.20;85.50;;;;;;5055507;28;20418;-73
2021/04/03 11:47:53;;;;;;;11.67;7.90;;;14.30;84.50;;;;;;5086344;28;20476;-75
2021/04/03 11:50:21;;;;;;;11.00;8.03;;;14.60;84.00;;;;;;5072462;28;20417;-75
2021/04/03 11:52:48;;;;;;;16.43;7.10;;;14.80;83.60;;;;;;5044895;28;20516;-76
2021/04/03 11:55:16;;;;;;;12.40;6.90;;;14.40;83.60;;;;;;5068152;28;20408;-75
2021/04/03 11:57:43;;;;;;;13.07;7.70;;;14.40;85.00;;;;;;5064297;28;20479;-76
2021/04/03 12:00:11;;;;;;;13.83;9.03;;;14.50;83.00;;;;;;5085669;28;20433;-78
2021/04/03 12:02:39;;;;;;;12.20;7.37;;;14.30;83.30;;;;;;5062052;28;20832;-79
2021/04/03 12:05:10;;;;;;;9.60;7.77;;;14.10;83.60;;;;;;5090060;28;20414;-79
2021/04/03 12:07:37;;;;;;;12.23;7.80;;;14.20;83.40;;;;;;5074790;28;20448;-77
2021/04/03 12:10:06;;;;;;;19.77;9.10;;;14.00;83.00;;;;;;5045544;28;20428;-77
2021/04/03 12:12:37;;;;;;;14.77;8.27;;;14.00;84.10;;;;;;5061991;28;20431;-76
2021/04/03 12:15:04;;;;;;;18.43;8.40;;;14.40;84.50;;;;;;5063736;28;20431;-76
2021/04/03 12:17:31;;;;;;;13.63;7.83;;;14.50;82.90;;;;;;5078084;28;20930;-77
2021/04/03 12:19:57;;;;;;;13.90;7.50;;;14.70;82.10;;;;;;5059635;28;20435;-78
2021/04/03 12:22:31;;;;;;;9.27;7.17;;;14.80;82.40;;;;;;5045232;28;20520;-75
2021/04/03 12:24:57;;;;;;;15.33;7.10;;;15.00;81.20;;;;;;5061569;28;20462;-78
2021/04/03 12:27:27;;;;;;;14.70;6.30;;;15.00;81.40;;;;;;5028538;28;20449;-76
2021/04/03 12:30:03;;;;;;;14.20;8.87;;;15.00;77.30;;;;;;5050365;28;20979;-77
2021/04/03 12:32:34;;;;;;;11.90;8.00;;;15.00;76.60;;;;;;5056129;28;20438;-76
2021/04/03 12:35:00;;;;;;;15.53;10.70;;;14.80;77.00;;;;;;5061760;28;20493;-77
2021/04/03 12:37:26;;;;;;;15.80;12.07;;;15.00;78.60;;;;;;5079162;28;20414;-75
2021/04/03 12:39:53;;;;;;;22.20;14.07;;;14.90;80.20;;;;;;5055959;28;20428;-75
2021/04/03 12:42:22;;;;;;;22.40;12.90;;;15.10;79.50;;;;;;5090386;28;20510;-75
2021/04/03 12:44:48;;;;;;;16.23;11.57;;;15.20;79.00;;;;;;5055475;28;20903;-75
2021/04/03 12:47:15;;;;;;;19.10;11.47;;;15.20;76.90;;;;;;5066301;28;20465;-75
2021/04/03 12:49:41;;;;;;;11.97;10.03;;;15.00;78.10;;;;;;5060954;28;20487;-75
2021/04/03 12:52:10;;;;;;;13.60;8.03;;;14.80;77.90;;;;;;5069447;28;20429;-75
2021/04/03 13:19:02;;;;;;;22.03;14.07;;;15.10;73.70;;;;;;3032015;28;22800;-78
2021/04/03 13:21:28;;;;;;;17.73;12.00;;;14.80;75.20;;;;;;4933287;29;20477;-79
2021/04/03 13:23:56;;;;;;;13.73;12.20;;;14.60;76.40;;;;;;4945303;29;21022;-79
2021/04/03 13:26:24;;;;;;;13.60;11.37;;;14.80;76.90;;;;;;4933017;29;20434;-79